sensor_id;sensor_type;location;lat;lon;timestamp;temperature;humidity
47384;DHT22;33129;52.232;5.192;2022-11-15T00:00:51;10.30;1.00
47384;DHT22;33129;52.232;5.192;2022-11-15T00:03:22;10.40;1.00
47384;DHT22;33129;52.232;5.192;2022-11-15T00:05:49;10.30;1.00
47384;DHT22;33129;52.232;5.192;2022-11-15T00:08:16;10.20;1.00
47384;DHT22;33129;52.232;5.192;2022-11-15T00:10:42;9.90;1.00
47384;DHT22;33129;52.232;5.192;2022-11-15T00:13:10;10.10;1.00
47384;DHT22;33129;52.232;5.192;2022-11-15T00:15:38;10.10;1.00
47384;DHT22;33129;52.232;5.192;2022-11-15T00:18:05;9.90;1.00
47384;DHT22;33129;52.232;5.192;2022-11-15T00:20:35;10.20;1.00
47384;DHT22;33129;52.232;5.192;2022-11-15T00:23:03;10.20;1.00
47384;DHT22;33129;52.232;5.192;2022-11-15T00:25:30;10.20;1.00
47384;DHT22;33129;52.232;5.192;2022-11-15T00:27:57;9.90;1.00
47384;DHT22;33129;52.232;5.192;2022-11-15T00:30:23;10.30;1.00
47384;DHT22;33129;52.232;5.192;2022-11-15T00:32:50;10.20;1.00
47384;DHT22;33129;52.232;5.192;2022-11-15T00:35:15;9.80;1.00
47384;DHT22;33129;52.232;5.192;2022-11-15T00:37:41;10.00;1.00
47384;DHT22;33129;52.232;5.192;2022-11-15T00:40:08;9.80;1.00
47384;DHT22;33129;52.232;5.192;2022-11-15T00:42:34;9.90;1.00
47384;DHT22;33129;52.232;5.192;2022-11-15T00:45:00;9.70;1.00
47384;DHT22;33129;52.232;5.192;2022-11-15T00:47:26;10.00;1.00
47384;DHT22;33129;52.232;5.192;2022-11-15T00:49:51;10.00;1.00
47384;DHT22;33129;52.232;5.192;2022-11-15T00:52:17;10.20;1.00
47384;DHT22;33129;52.232;5.192;2022-11-15T00:54:43;10.20;1.00
47384;DHT22;33129;52.232;5.192;2022-11-15T00:57:09;9.90;1.00
47384;DHT22;33129;52.232;5.192;2022-11-15T00:59:34;10.00;1.00
47384;DHT22;33129;52.232;5.192;2022-11-15T01:02:00;10.20;1.00
47384;DHT22;33129;52.232;5.192;2022-11-15T01:04:26;10.50;1.00
47384;DHT22;33129;52.232;5.192;2022-11-15T01:06:52;10.30;1.00
47384;DHT22;33129;52.232;5.192;2022-11-15T01:09:19;10.20;1.00
47384;DHT22;33129;52.232;5.192;2022-11-15T01:11:44;10.40;1.00
47384;DHT22;33129;52.232;5.192;2022-11-15T01:14:10;10.20;1.00
47384;DHT22;33129;52.232;5.192;2022-11-15T01:16:36;10.20;1.00
47384;DHT22;33129;52.232;5.192;2022-11-15T01:19:02;10.20;1.00
47384;DHT22;33129;52.232;5.192;2022-11-15T01:21:28;10.50;1.00
47384;DHT22;33129;52.232;5.192;2022-11-15T01:23:55;10.20;1.00
47384;DHT22;33129;52.232;5.192;2022-11-15T01:26:21;10.40;1.00
47384;DHT22;33129;52.232;5.192;2022-11-15T01:28:47;10.40;1.00
47384;DHT22;33129;52.232;5.192;2022-11-15T01:31:16;10.10;1.00
47384;DHT22;33129;52.232;5.192;2022-11-15T01:33:46;10.10;1.00
47384;DHT22;33129;52.232;5.192;2022-11-15T01:36:18;10.20;1.00
47384;DHT22;33129;52.232;5.192;2022-11-15T01:38:46;10.30;1.00
47384;DHT22;33129;52.232;5.192;2022-11-15T01:41:18;10.20;1.00
47384;DHT22;33129;52.232;5.192;2022-11-15T01:43:50;10.10;1.00
47384;DHT22;33129;52.232;5.192;2022-11-15T01:48:51;10.30;1.00
47384;DHT22;33129;52.232;5.192;2022-11-15T01:51:20;10.50;1.00
47384;DHT22;33129;52.232;5.192;2022-11-15T01:53:50;10.30;1.00
47384;DHT22;33129;52.232;5.192;2022-11-15T01:56:20;10.60;1.00
47384;DHT22;33129;52.232;5.192;2022-11-15T01:58:51;10.50;1.00
47384;DHT22;33129;52.232;5.192;2022-11-15T02:01:18;10.80;1.00
47384;DHT22;33129;52.232;5.192;2022-11-15T02:03:58;10.20;1.00
47384;DHT22;33129;52.232;5.192;2022-11-15T02:06:26;10.50;1.00
47384;DHT22;33129;52.232;5.192;2022-11-15T02:08:53;10.50;1.00
47384;DHT22;33129;52.232;5.192;2022-11-15T02:11:19;10.30;1.00
47384;DHT22;33129;52.232;5.192;2022-11-15T02:13:45;10.20;1.00
47384;DHT22;33129;52.232;5.192;2022-11-15T02:22:32;10.50;1.00
47384;DHT22;33129;52.232;5.192;2022-11-15T02:30:47;10.90;1.00
47384;DHT22;33129;52.232;5.192;2022-11-15T02:36:48;10.70;1.00
47384;DHT22;33129;52.232;5.192;2022-11-15T02:42:49;10.90;1.00
47384;DHT22;33129;52.232;5.192;2022-11-15T02:45:40;10.80;1.00
47384;DHT22;33129;52.232;5.192;2022-11-15T02:48:11;10.80;1.00
47384;DHT22;33129;52.232;5.192;2022-11-15T02:50:37;11.00;1.00
47384;DHT22;33129;52.232;5.192;2022-11-15T02:53:04;10.80;1.00
47384;DHT22;33129;52.232;5.192;2022-11-15T02:55:48;10.70;1.00
47384;DHT22;33129;52.232;5.192;2022-11-15T03:16:07;11.20;1.00
47384;DHT22;33129;52.232;5.192;2022-11-15T03:18:45;11.10;1.00
47384;DHT22;33129;52.232;5.192;2022-11-15T03:21:14;11.00;1.00
47384;DHT22;33129;52.232;5.192;2022-11-15T03:23:41;11.20;1.00
47384;DHT22;33129;52.232;5.192;2022-11-15T03:26:10;11.00;1.00
47384;DHT22;33129;52.232;5.192;2022-11-15T03:28:53;11.20;1.00
47384;DHT22;33129;52.232;5.192;2022-11-15T03:31:23;10.90;1.00
47384;DHT22;33129;52.232;5.192;2022-11-15T03:36:52;11.50;1.00
47384;DHT22;33129;52.232;5.192;2022-11-15T03:39:19;11.40;1.00
47384;DHT22;33129;52.232;5.192;2022-11-15T03:45:02;11.40;1.00
47384;DHT22;33129;52.232;5.192;2022-11-15T03:47:41;11.30;1.00
47384;DHT22;33129;52.232;5.192;2022-11-15T03:50:17;11.40;1.00
47384;DHT22;33129;52.232;5.192;2022-11-15T03:52:48;11.20;1.00
47384;DHT22;33129;52.232;5.192;2022-11-15T03:55:20;11.20;1.00
47384;DHT22;33129;52.232;5.192;2022-11-15T03:57:49;11.40;1.00
47384;DHT22;33129;52.232;5.192;2022-11-15T04:00:17;11.40;1.00
47384;DHT22;33129;52.232;5.192;2022-11-15T04:02:42;11.40;1.00
47384;DHT22;33129;52.232;5.192;2022-11-15T04:05:08;11.70;1.00
47384;DHT22;33129;52.232;5.192;2022-11-15T04:07:34;11.30;1.00
47384;DHT22;33129;52.232;5.192;2022-11-15T04:10:00;11.70;1.00
47384;DHT22;33129;52.232;5.192;2022-11-15T04:12:33;11.60;1.00
47384;DHT22;33129;52.232;5.192;2022-11-15T04:15:06;11.60;1.00
47384;DHT22;33129;52.232;5.192;2022-11-15T04:17:38;11.70;1.00
47384;DHT22;33129;52.232;5.192;2022-11-15T04:20:17;11.50;1.00
47384;DHT22;33129;52.232;5.192;2022-11-15T04:25:59;11.40;1.00
47384;DHT22;33129;52.232;5.192;2022-11-15T04:28:26;11.70;1.00
47384;DHT22;33129;52.232;5.192;2022-11-15T04:30:52;11.90;1.00
47384;DHT22;33129;52.232;5.192;2022-11-15T04:33:18;11.80;1.00
47384;DHT22;33129;52.232;5.192;2022-11-15T04:35:44;11.70;1.00
47384;DHT22;33129;52.232;5.192;2022-11-15T04:38:30;11.70;1.00
47384;DHT22;33129;52.232;5.192;2022-11-15T04:40:56;11.70;1.00
47384;DHT22;33129;52.232;5.192;2022-11-15T04:43:22;11.70;1.00
47384;DHT22;33129;52.232;5.192;2022-11-15T04:45:48;11.90;1.00
47384;DHT22;33129;52.232;5.192;2022-11-15T04:48:13;11.70;1.00
47384;DHT22;33129;52.232;5.192;2022-11-15T04:50:39;11.90;1.00
47384;DHT22;33129;52.232;5.192;2022-11-15T04:53:05;12.00;1.00
47384;DHT22;33129;52.232;5.192;2022-11-15T04:55:31;11.80;1.00
47384;DHT22;33129;52.232;5.192;2022-11-15T04:57:59;11.70;1.00
47384;DHT22;33129;52.232;5.192;2022-11-15T05:00:26;12.10;1.00
47384;DHT22;33129;52.232;5.192;2022-11-15T05:02:53;11.90;1.00
47384;DHT22;33129;52.232;5.192;2022-11-15T05:06:30;12.20;1.00
47384;DHT22;33129;52.232;5.192;2022-11-15T05:09:48;11.90;1.00
47384;DHT22;33129;52.232;5.192;2022-11-15T05:13:07;11.90;1.00
47384;DHT22;33129;52.232;5.192;2022-11-15T05:16:25;12.20;1.00
47384;DHT22;33129;52.232;5.192;2022-11-15T05:19:43;12.10;1.00
47384;DHT22;33129;52.232;5.192;2022-11-15T05:22:12;12.20;1.00
47384;DHT22;33129;52.232;5.192;2022-11-15T05:24:49;12.10;1.00
47384;DHT22;33129;52.232;5.192;2022-11-15T05:27:19;11.90;1.00
47384;DHT22;33129;52.232;5.192;2022-11-15T05:29:45;12.00;1.00
47384;DHT22;33129;52.232;5.192;2022-11-15T05:32:41;12.10;1.00
47384;DHT22;33129;52.232;5.192;2022-11-15T05:35:16;12.00;1.00
47384;DHT22;33129;52.232;5.192;2022-11-15T05:37:51;12.10;1.00
47384;DHT22;33129;52.232;5.192;2022-11-15T05:40:30;12.10;1.00
47384;DHT22;33129;52.232;5.192;2022-11-15T05:43:00;12.20;1.00
47384;DHT22;33129;52.232;5.192;2022-11-15T05:45:29;12.20;1.00
47384;DHT22;33129;52.232;5.192;2022-11-15T05:48:06;11.80;1.00
47384;DHT22;33129;52.232;5.192;2022-11-15T05:50:52;12.20;1.00
47384;DHT22;33129;52.232;5.192;2022-11-15T05:53:25;12.30;1.00
47384;DHT22;33129;52.232;5.192;2022-11-15T05:55:56;12.10;1.00
47384;DHT22;33129;52.232;5.192;2022-11-15T05:58:24;12.30;1.00
47384;DHT22;33129;52.232;5.192;2022-11-15T06:00:50;12.30;1.00
47384;DHT22;33129;52.232;5.192;2022-11-15T06:03:18;12.20;1.00
47384;DHT22;33129;52.232;5.192;2022-11-15T06:05:45;12.30;1.00
47384;DHT22;33129;52.232;5.192;2022-11-15T06:08:11;12.10;1.00
47384;DHT22;33129;52.232;5.192;2022-11-15T06:10:53;12.30;1.00
47384;DHT22;33129;52.232;5.192;2022-11-15T06:13:56;12.10;1.00
47384;DHT22;33129;52.232;5.192;2022-11-15T06:17:14;12.50;1.00
47384;DHT22;33129;52.232;5.192;2022-11-15T06:19:41;12.40;1.00
47384;DHT22;33129;52.232;5.192;2022-11-15T06:22:07;12.70;1.00
47384;DHT22;33129;52.232;5.192;2022-11-15T06:24:38;12.60;1.00
47384;DHT22;33129;52.232;5.192;2022-11-15T06:27:03;12.60;1.00
47384;DHT22;33129;52.232;5.192;2022-11-15T06:29:29;12.50;1.00
47384;DHT22;33129;52.232;5.192;2022-11-15T06:31:55;12.40;1.00
47384;DHT22;33129;52.232;5.192;2022-11-15T06:34:21;12.60;1.00
47384;DHT22;33129;52.232;5.192;2022-11-15T06:36:48;12.50;1.00
47384;DHT22;33129;52.232;5.192;2022-11-15T06:39:40;12.40;1.00
47384;DHT22;33129;52.232;5.192;2022-11-15T06:42:07;12.40;1.00
47384;DHT22;33129;52.232;5.192;2022-11-15T06:44:33;12.40;1.00
47384;DHT22;33129;52.232;5.192;2022-11-15T06:46:59;12.60;1.00
47384;DHT22;33129;52.232;5.192;2022-11-15T06:49:25;12.70;1.00
47384;DHT22;33129;52.232;5.192;2022-11-15T06:52:10;12.80;1.00
47384;DHT22;33129;52.232;5.192;2022-11-15T06:55:27;12.80;1.00
47384;DHT22;33129;52.232;5.192;2022-11-15T06:58:11;12.90;1.00
47384;DHT22;33129;52.232;5.192;2022-11-15T07:00:40;12.80;1.00
47384;DHT22;33129;52.232;5.192;2022-11-15T07:03:07;13.10;1.00
47384;DHT22;33129;52.232;5.192;2022-11-15T07:05:33;12.60;1.00
47384;DHT22;33129;52.232;5.192;2022-11-15T07:07:59;12.80;1.00
47384;DHT22;33129;52.232;5.192;2022-11-15T07:10:26;12.80;1.00
47384;DHT22;33129;52.232;5.192;2022-11-15T07:12:52;12.60;1.00
47384;DHT22;33129;52.232;5.192;2022-11-15T07:15:20;12.70;1.00
47384;DHT22;33129;52.232;5.192;2022-11-15T07:17:46;12.80;1.00
47384;DHT22;33129;52.232;5.192;2022-11-15T07:20:13;12.90;1.00
47384;DHT22;33129;52.232;5.192;2022-11-15T07:22:40;12.60;1.00
47384;DHT22;33129;52.232;5.192;2022-11-15T07:25:06;12.90;1.00
47384;DHT22;33129;52.232;5.192;2022-11-15T07:27:33;12.70;1.00
47384;DHT22;33129;52.232;5.192;2022-11-15T07:29:59;12.70;1.00
47384;DHT22;33129;52.232;5.192;2022-11-15T07:32:24;12.70;1.00
47384;DHT22;33129;52.232;5.192;2022-11-15T07:35:24;12.60;1.00
47384;DHT22;33129;52.232;5.192;2022-11-15T07:38:42;12.80;1.00
47384;DHT22;33129;52.232;5.192;2022-11-15T07:41:16;12.60;1.00
47384;DHT22;33129;52.232;5.192;2022-11-15T07:44:05;13.00;1.00
47384;DHT22;33129;52.232;5.192;2022-11-15T07:46:41;13.00;1.00
47384;DHT22;33129;52.232;5.192;2022-11-15T07:50:00;13.10;1.00
47384;DHT22;33129;52.232;5.192;2022-11-15T07:53:18;12.90;1.00
47384;DHT22;33129;52.232;5.192;2022-11-15T07:56:24;12.80;1.00
47384;DHT22;33129;52.232;5.192;2022-11-15T07:58:50;13.10;1.00
47384;DHT22;33129;52.232;5.192;2022-11-15T08:01:16;12.90;1.00
47384;DHT22;33129;52.232;5.192;2022-11-15T08:03:42;12.90;1.00
47384;DHT22;33129;52.232;5.192;2022-11-15T08:06:07;13.20;1.00
47384;DHT22;33129;52.232;5.192;2022-11-15T08:08:33;12.70;1.00
47384;DHT22;33129;52.232;5.192;2022-11-15T08:11:00;13.20;1.00
47384;DHT22;33129;52.232;5.192;2022-11-15T08:13:26;12.80;1.00
47384;DHT22;33129;52.232;5.192;2022-11-15T08:15:59;13.10;1.00
47384;DHT22;33129;52.232;5.192;2022-11-15T08:18:31;13.40;1.00
47384;DHT22;33129;52.232;5.192;2022-11-15T08:21:00;13.00;1.00
47384;DHT22;33129;52.232;5.192;2022-11-15T08:23:26;13.10;1.00
47384;DHT22;33129;52.232;5.192;2022-11-15T08:25:58;13.30;1.00
47384;DHT22;33129;52.232;5.192;2022-11-15T08:28:24;13.30;1.00
47384;DHT22;33129;52.232;5.192;2022-11-15T08:30:55;13.00;1.00
47384;DHT22;33129;52.232;5.192;2022-11-15T08:33:20;13.20;1.00
47384;DHT22;33129;52.232;5.192;2022-11-15T08:35:50;13.00;1.00
47384;DHT22;33129;52.232;5.192;2022-11-15T08:39:11;13.20;1.00
47384;DHT22;33129;52.232;5.192;2022-11-15T08:41:53;13.00;1.00
47384;DHT22;33129;52.232;5.192;2022-11-15T08:44:54;13.10;1.00
47384;DHT22;33129;52.232;5.192;2022-11-15T08:47:24;13.00;1.00
47384;DHT22;33129;52.232;5.192;2022-11-15T08:49:50;13.20;1.00
47384;DHT22;33129;52.232;5.192;2022-11-15T08:53:10;13.20;1.00
47384;DHT22;33129;52.232;5.192;2022-11-15T08:56:28;13.40;1.00
47384;DHT22;33129;52.232;5.192;2022-11-15T08:59:46;13.30;1.00
47384;DHT22;33129;52.232;5.192;2022-11-15T09:02:53;13.00;1.00
47384;DHT22;33129;52.232;5.192;2022-11-15T09:05:20;13.40;1.00
47384;DHT22;33129;52.232;5.192;2022-11-15T09:07:53;13.20;1.00
47384;DHT22;33129;52.232;5.192;2022-11-15T09:11:09;13.80;1.00
47384;DHT22;33129;52.232;5.192;2022-11-15T09:14:01;13.70;1.00
47384;DHT22;33129;52.232;5.192;2022-11-15T09:17:02;13.70;1.00
47384;DHT22;33129;52.232;5.192;2022-11-15T09:19:36;13.60;1.00
47384;DHT22;33129;52.232;5.192;2022-11-15T09:22:51;14.20;1.00
47384;DHT22;33129;52.232;5.192;2022-11-15T09:25:46;14.20;1.00
47384;DHT22;33129;52.232;5.192;2022-11-15T09:28:30;14.80;1.00
47384;DHT22;33129;52.232;5.192;2022-11-15T09:31:19;13.90;1.00
47384;DHT22;33129;52.232;5.192;2022-11-15T09:33:51;14.30;1.00
47384;DHT22;33129;52.232;5.192;2022-11-15T09:36:17;15.00;1.00
47384;DHT22;33129;52.232;5.192;2022-11-15T09:39:01;15.50;1.00
47384;DHT22;33129;52.232;5.192;2022-11-15T09:43:18;16.80;1.00
47384;DHT22;33129;52.232;5.192;2022-11-15T09:46:25;18.20;1.00
47384;DHT22;33129;52.232;5.192;2022-11-15T09:49:26;19.10;99.90
47384;DHT22;33129;52.232;5.192;2022-11-15T09:52:18;18.10;99.90
47384;DHT22;33129;52.232;5.192;2022-11-15T09:54:48;19.00;99.90
47384;DHT22;33129;52.232;5.192;2022-11-15T09:57:24;19.10;99.90
47384;DHT22;33129;52.232;5.192;2022-11-15T10:00:06;19.60;99.90
47384;DHT22;33129;52.232;5.192;2022-11-15T10:05:19;18.70;99.90
47384;DHT22;33129;52.232;5.192;2022-11-15T10:13:03;16.90;99.90
47384;DHT22;33129;52.232;5.192;2022-11-15T10:15:29;17.20;99.90
47384;DHT22;33129;52.232;5.192;2022-11-15T10:18:19;17.80;99.90
47384;DHT22;33129;52.232;5.192;2022-11-15T10:21:10;17.30;99.90
47384;DHT22;33129;52.232;5.192;2022-11-15T10:23:41;16.90;99.90
47384;DHT22;33129;52.232;5.192;2022-11-15T10:26:11;16.40;99.90
47384;DHT22;33129;52.232;5.192;2022-11-15T10:28:39;16.20;1.00
47384;DHT22;33129;52.232;5.192;2022-11-15T10:31:25;15.80;1.00
47384;DHT22;33129;52.232;5.192;2022-11-15T10:34:15;15.30;1.00
47384;DHT22;33129;52.232;5.192;2022-11-15T10:39:21;16.10;1.00
47384;DHT22;33129;52.232;5.192;2022-11-15T10:41:47;16.20;1.00
47384;DHT22;33129;52.232;5.192;2022-11-15T10:46:44;15.60;1.00
47384;DHT22;33129;52.232;5.192;2022-11-15T10:49:20;15.60;1.00
47384;DHT22;33129;52.232;5.192;2022-11-15T10:52:12;15.90;1.00
47384;DHT22;33129;52.232;5.192;2022-11-15T10:57:18;16.00;1.00
47384;DHT22;33129;52.232;5.192;2022-11-15T10:59:47;15.70;99.90
47384;DHT22;33129;52.232;5.192;2022-11-15T11:04:59;16.00;1.00
47384;DHT22;33129;52.232;5.192;2022-11-15T11:07:31;16.10;99.90
47384;DHT22;33129;52.232;5.192;2022-11-15T11:10:20;16.00;1.00
47384;DHT22;33129;52.232;5.192;2022-11-15T11:12:46;16.10;99.90
47384;DHT22;33129;52.232;5.192;2022-11-15T11:15:14;16.10;99.90
47384;DHT22;33129;52.232;5.192;2022-11-15T11:20:41;16.70;99.90
47384;DHT22;33129;52.232;5.192;2022-11-15T11:25:59;16.80;99.90
47384;DHT22;33129;52.232;5.192;2022-11-15T11:28:44;16.70;99.90
47384;DHT22;33129;52.232;5.192;2022-11-15T11:31:51;16.30;99.90
47384;DHT22;33129;52.232;5.192;2022-11-15T11:37:44;15.40;99.90
47384;DHT22;33129;52.232;5.192;2022-11-15T11:43:08;15.50;99.90
47384;DHT22;33129;52.232;5.192;2022-11-15T11:45:44;16.10;99.90
47384;DHT22;33129;52.232;5.192;2022-11-15T11:51:22;16.50;99.90
47384;DHT22;33129;52.232;5.192;2022-11-15T11:53:56;16.40;99.90
47384;DHT22;33129;52.232;5.192;2022-11-15T11:56:31;16.40;99.90
47384;DHT22;33129;52.232;5.192;2022-11-15T12:01:44;16.30;99.90
47384;DHT22;33129;52.232;5.192;2022-11-15T12:04:29;16.30;99.90
47384;DHT22;33129;52.232;5.192;2022-11-15T12:07:27;16.20;99.90
47384;DHT22;33129;52.232;5.192;2022-11-15T12:10:16;15.80;99.90
47384;DHT22;33129;52.232;5.192;2022-11-15T12:13:04;16.20;99.90
47384;DHT22;33129;52.232;5.192;2022-11-15T12:15:41;16.40;99.90
47384;DHT22;33129;52.232;5.192;2022-11-15T12:18:15;16.40;99.90
47384;DHT22;33129;52.232;5.192;2022-11-15T12:20:47;16.20;99.90
47384;DHT22;33129;52.232;5.192;2022-11-15T12:23:37;16.10;99.90
47384;DHT22;33129;52.232;5.192;2022-11-15T12:26:14;16.60;99.90
47384;DHT22;33129;52.232;5.192;2022-11-15T12:28:57;16.20;99.90
47384;DHT22;33129;52.232;5.192;2022-11-15T12:34:02;16.10;99.90
47384;DHT22;33129;52.232;5.192;2022-11-15T12:36:41;15.90;99.90
47384;DHT22;33129;52.232;5.192;2022-11-15T12:39:10;16.20;99.90
47384;DHT22;33129;52.232;5.192;2022-11-15T12:47:21;16.20;99.90
47384;DHT22;33129;52.232;5.192;2022-11-15T12:49:49;16.20;99.90
47384;DHT22;33129;52.232;5.192;2022-11-15T12:52:15;16.60;99.90
47384;DHT22;33129;52.232;5.192;2022-11-15T12:59:53;17.00;99.90
47384;DHT22;33129;52.232;5.192;2022-11-15T13:02:44;17.30;99.90
47384;DHT22;33129;52.232;5.192;2022-11-15T13:17:58;16.30;99.90
47384;DHT22;33129;52.232;5.192;2022-11-15T13:20:29;16.10;99.90
47384;DHT22;33129;52.232;5.192;2022-11-15T13:23:10;16.50;99.90
47384;DHT22;33129;52.232;5.192;2022-11-15T13:26:09;16.60;99.90
47384;DHT22;33129;52.232;5.192;2022-11-15T13:28:49;16.30;99.90
47384;DHT22;33129;52.232;5.192;2022-11-15T13:31:35;16.10;99.90
47384;DHT22;33129;52.232;5.192;2022-11-15T13:34:30;15.90;99.90
47384;DHT22;33129;52.232;5.192;2022-11-15T13:37:01;15.50;99.90
47384;DHT22;33129;52.232;5.192;2022-11-15T13:41:57;15.80;99.90
47384;DHT22;33129;52.232;5.192;2022-11-15T13:44:28;15.60;99.90
47384;DHT22;33129;52.232;5.192;2022-11-15T13:47:14;15.80;99.90
47384;DHT22;33129;52.232;5.192;2022-11-15T13:49:45;15.80;99.90
47384;DHT22;33129;52.232;5.192;2022-11-15T13:52:14;15.90;99.90
47384;DHT22;33129;52.232;5.192;2022-11-15T13:57:48;15.20;99.90
47384;DHT22;33129;52.232;5.192;2022-11-15T14:00:39;15.60;99.90
47384;DHT22;33129;52.232;5.192;2022-11-15T14:06:07;15.30;99.90
47384;DHT22;33129;52.232;5.192;2022-11-15T14:09:14;15.30;99.90
47384;DHT22;33129;52.232;5.192;2022-11-15T14:12:26;15.30;99.90
47384;DHT22;33129;52.232;5.192;2022-11-15T14:14:53;15.40;99.90
47384;DHT22;33129;52.232;5.192;2022-11-15T14:17:41;14.70;99.90
47384;DHT22;33129;52.232;5.192;2022-11-15T14:20:26;14.70;99.90
47384;DHT22;33129;52.232;5.192;2022-11-15T14:23:02;14.80;99.90
47384;DHT22;33129;52.232;5.192;2022-11-15T14:25:31;14.50;99.90
47384;DHT22;33129;52.232;5.192;2022-11-15T14:28:15;14.70;99.90
47384;DHT22;33129;52.232;5.192;2022-11-15T14:30:48;14.60;99.90
47384;DHT22;33129;52.232;5.192;2022-11-15T14:35:50;14.90;99.90
47384;DHT22;33129;52.232;5.192;2022-11-15T14:38:16;14.80;99.90
47384;DHT22;33129;52.232;5.192;2022-11-15T14:40:43;14.60;99.90
47384;DHT22;33129;52.232;5.192;2022-11-15T14:43:10;14.60;99.90
47384;DHT22;33129;52.232;5.192;2022-11-15T14:45:37;14.70;99.90
47384;DHT22;33129;52.232;5.192;2022-11-15T14:48:03;14.30;99.90
47384;DHT22;33129;52.232;5.192;2022-11-15T14:50:29;14.20;99.90
47384;DHT22;33129;52.232;5.192;2022-11-15T14:52:55;14.30;99.90
47384;DHT22;33129;52.232;5.192;2022-11-15T14:55:21;14.30;99.90
47384;DHT22;33129;52.232;5.192;2022-11-15T14:57:49;14.30;99.90
47384;DHT22;33129;52.232;5.192;2022-11-15T15:00:16;14.40;99.90
47384;DHT22;33129;52.232;5.192;2022-11-15T15:02:45;14.10;99.90
47384;DHT22;33129;52.232;5.192;2022-11-15T15:05:21;14.20;99.90
47384;DHT22;33129;52.232;5.192;2022-11-15T15:07:53;14.40;99.90
47384;DHT22;33129;52.232;5.192;2022-11-15T15:10:20;14.30;99.90
47384;DHT22;33129;52.232;5.192;2022-11-15T15:12:46;14.20;99.90
47384;DHT22;33129;52.232;5.192;2022-11-15T15:15:15;14.10;99.90
47384;DHT22;33129;52.232;5.192;2022-11-15T15:17:42;14.10;99.90
47384;DHT22;33129;52.232;5.192;2022-11-15T15:20:08;14.40;99.90
47384;DHT22;33129;52.232;5.192;2022-11-15T15:22:34;14.40;99.90
47384;DHT22;33129;52.232;5.192;2022-11-15T15:25:00;14.20;99.90
47384;DHT22;33129;52.232;5.192;2022-11-15T15:27:26;14.30;99.90
47384;DHT22;33129;52.232;5.192;2022-11-15T15:29:52;14.60;99.90
47384;DHT22;33129;52.232;5.192;2022-11-15T15:32:18;14.20;99.90
47384;DHT22;33129;52.232;5.192;2022-11-15T15:34:43;14.50;99.90
47384;DHT22;33129;52.232;5.192;2022-11-15T15:37:19;14.30;99.90
47384;DHT22;33129;52.232;5.192;2022-11-15T15:39:54;14.10;99.90
47384;DHT22;33129;52.232;5.192;2022-11-15T15:42:22;14.20;99.90
47384;DHT22;33129;52.232;5.192;2022-11-15T15:44:48;14.20;99.90
47384;DHT22;33129;52.232;5.192;2022-11-15T15:47:23;14.40;99.90
47384;DHT22;33129;52.232;5.192;2022-11-15T15:49:49;14.10;99.90
47384;DHT22;33129;52.232;5.192;2022-11-15T15:52:16;14.20;99.90
47384;DHT22;33129;52.232;5.192;2022-11-15T15:54:42;14.30;99.90
47384;DHT22;33129;52.232;5.192;2022-11-15T15:57:12;14.20;99.90
47384;DHT22;33129;52.232;5.192;2022-11-15T15:59:38;14.00;99.90
47384;DHT22;33129;52.232;5.192;2022-11-15T16:02:04;14.40;99.90
47384;DHT22;33129;52.232;5.192;2022-11-15T16:04:30;14.40;99.90
47384;DHT22;33129;52.232;5.192;2022-11-15T16:06:59;14.40;99.90
47384;DHT22;33129;52.232;5.192;2022-11-15T16:09:26;14.20;99.90
47384;DHT22;33129;52.232;5.192;2022-11-15T16:12:11;14.20;99.90
47384;DHT22;33129;52.232;5.192;2022-11-15T16:14:37;14.60;99.90
47384;DHT22;33129;52.232;5.192;2022-11-15T16:17:03;14.40;99.90
47384;DHT22;33129;52.232;5.192;2022-11-15T16:19:29;14.40;99.90
47384;DHT22;33129;52.232;5.192;2022-11-15T16:21:55;14.30;99.90
47384;DHT22;33129;52.232;5.192;2022-11-15T16:24:21;14.50;99.90
47384;DHT22;33129;52.232;5.192;2022-11-15T16:26:47;14.20;99.90
47384;DHT22;33129;52.232;5.192;2022-11-15T16:29:14;14.30;99.90
47384;DHT22;33129;52.232;5.192;2022-11-15T16:31:41;14.30;99.90
47384;DHT22;33129;52.232;5.192;2022-11-15T16:34:07;14.50;99.90
47384;DHT22;33129;52.232;5.192;2022-11-15T16:36:34;14.50;99.90
47384;DHT22;33129;52.232;5.192;2022-11-15T16:39:00;14.20;99.90
47384;DHT22;33129;52.232;5.192;2022-11-15T16:41:29;14.40;99.90
47384;DHT22;33129;52.232;5.192;2022-11-15T16:43:55;14.50;99.90
47384;DHT22;33129;52.232;5.192;2022-11-15T16:46:24;14.40;99.90
47384;DHT22;33129;52.232;5.192;2022-11-15T16:48:51;14.40;99.90
47384;DHT22;33129;52.232;5.192;2022-11-15T16:51:21;14.40;99.90
47384;DHT22;33129;52.232;5.192;2022-11-15T16:53:47;14.30;99.90
47384;DHT22;33129;52.232;5.192;2022-11-15T16:56:23;14.50;99.90
47384;DHT22;33129;52.232;5.192;2022-11-15T16:58:51;14.40;99.90
47384;DHT22;33129;52.232;5.192;2022-11-15T17:01:24;14.50;99.90
47384;DHT22;33129;52.232;5.192;2022-11-15T17:03:51;14.40;99.90
47384;DHT22;33129;52.232;5.192;2022-11-15T17:06:17;14.40;99.90
47384;DHT22;33129;52.232;5.192;2022-11-15T17:08:47;14.40;99.90
47384;DHT22;33129;52.232;5.192;2022-11-15T17:11:19;14.30;99.90
47384;DHT22;33129;52.232;5.192;2022-11-15T17:13:46;14.50;99.90
47384;DHT22;33129;52.232;5.192;2022-11-15T17:16:15;14.20;99.90
47384;DHT22;33129;52.232;5.192;2022-11-15T17:18:43;14.00;99.90
47384;DHT22;33129;52.232;5.192;2022-11-15T17:21:15;14.00;99.90
47384;DHT22;33129;52.232;5.192;2022-11-15T17:23:43;14.00;1.00
47384;DHT22;33129;52.232;5.192;2022-11-15T17:26:10;14.10;1.00
47384;DHT22;33129;52.232;5.192;2022-11-15T17:28:38;13.70;1.00
47384;DHT22;33129;52.232;5.192;2022-11-15T17:31:13;13.90;1.00
47384;DHT22;33129;52.232;5.192;2022-11-15T17:33:39;13.80;1.00
47384;DHT22;33129;52.232;5.192;2022-11-15T17:36:09;13.80;1.00
47384;DHT22;33129;52.232;5.192;2022-11-15T17:38:36;13.70;1.00
47384;DHT22;33129;52.232;5.192;2022-11-15T17:41:08;13.60;1.00
47384;DHT22;33129;52.232;5.192;2022-11-15T17:43:36;13.40;1.00
47384;DHT22;33129;52.232;5.192;2022-11-15T17:46:13;13.20;1.00
47384;DHT22;33129;52.232;5.192;2022-11-15T17:48:47;13.60;1.00
47384;DHT22;33129;52.232;5.192;2022-11-15T17:51:17;13.30;1.00
47384;DHT22;33129;52.232;5.192;2022-11-15T17:53:45;13.50;1.00
47384;DHT22;33129;52.232;5.192;2022-11-15T17:56:16;13.40;1.00
47384;DHT22;33129;52.232;5.192;2022-11-15T17:58:51;13.40;1.00
47384;DHT22;33129;52.232;5.192;2022-11-15T18:03:48;13.10;1.00
47384;DHT22;33129;52.232;5.192;2022-11-15T18:06:14;13.40;1.00
47384;DHT22;33129;52.232;5.192;2022-11-15T18:08:41;13.20;1.00
47384;DHT22;33129;52.232;5.192;2022-11-15T18:11:20;13.10;1.00
47384;DHT22;33129;52.232;5.192;2022-11-15T18:14:08;13.10;1.00
47384;DHT22;33129;52.232;5.192;2022-11-15T18:16:37;13.10;1.00
47384;DHT22;33129;52.232;5.192;2022-11-15T18:19:04;13.00;1.00
47384;DHT22;33129;52.232;5.192;2022-11-15T18:21:34;12.90;1.00
47384;DHT22;33129;52.232;5.192;2022-11-15T18:24:02;13.20;1.00
47384;DHT22;33129;52.232;5.192;2022-11-15T18:26:29;13.00;1.00
47384;DHT22;33129;52.232;5.192;2022-11-15T18:29:01;12.90;1.00